CSCL Fuzhou — ELYA7 — position and weather

sailwx.info

Track history (hours):
 
Tides and Currents Weather Stations Pressure Air Temp Water Temp Dewpoint Dewpoint Depression Visibility Wind Speed Wind Dir Waves Ship Positions

CSCL Fuzhou

Last reported at 2017-Feb-23 02:06 UTC. Time now 2017-Feb-24 21:35 UTC.
Position N 01°14' E 104°01'.

Length 207.4 m; beam 29.8 m; draft 11.4 m.

Type: Ship (hazmat cat A). MMSI: 636016483.

Date/timePositionNaut miles runAvg speedWind from/ knotsBaromVisibWave heightAir tempDewpointWater temp
2017-Feb-23 02:06N 01°14' E 104°01'1017.9
2017-Feb-23 01:33N 01°11' E 103°52'1716.9
2017-Feb-23 00:34N 01°03' E 103°37'1212.2
2017-Feb-22 23:33N 01°14' E 103°31'9 8.6
2017-Feb-22 22:33N 01°22' E 103°32'0 0.1
2017-Feb-22 21:19N 01°22' E 103°33'0 0.0
2017-Feb-22 20:31N 01°22' E 103°33'0 0.0
2017-Feb-22 19:31N 01°22' E 103°33'0 0.0
2017-Feb-22 18:25N 01°22' E 103°33'0 0.0
2017-Feb-22 16:28N 01°22' E 103°33'0 0.0
2017-Feb-22 15:31N 01°22' E 103°33'0 0.0
2017-Feb-22 13:31N 01°22' E 103°33'0 0.0
2017-Feb-22 12:28N 01°22' E 103°33'0 0.0
2017-Feb-22 11:28N 01°22' E 103°33'0 0.0
2017-Feb-22 10:31N 01°22' E 103°33'0 0.0
2017-Feb-22 09:19N 01°22' E 103°33'0 0.0
2017-Feb-22 08:31N 01°22' E 103°33'1 1.0
2017-Feb-22 07:33N 01°21' E 103°33'8 8.5
2017-Feb-22 06:33N 01°13' E 103°31'8 8.2
2017-Feb-22 05:33N 01°14' E 103°23'6115.0
2017-Feb-22 01:30N 01°46' E 102°32'  
2017-Feb-18 14:27N 01°55' E 102°19'1411.6
2017-Feb-18 13:13N 01°49' E 102°32'6513.9
2017-Feb-18 08:34N 01°14' E 103°27'1212.4
2017-Feb-18 07:34N 01°12' E 103°39'8 7.7
2017-Feb-18 06:32N 01°17' E 103°45'0 0.0
2017-Feb-18 05:32N 01°17' E 103°45'0 0.0
2017-Feb-18 04:32N 01°17' E 103°45'0 0.0
2017-Feb-18 03:32N 01°17' E 103°45'0 0.0
2017-Feb-18 02:32N 01°17' E 103°45'0 0.0
2017-Feb-18 01:32N 01°17' E 103°45'0 0.0
2017-Feb-18 00:32N 01°17' E 103°45'0 0.0
2017-Feb-17 23:32N 01°17' E 103°45'0 0.0
2017-Feb-17 22:29N 01°17' E 103°45'0 0.0
2017-Feb-17 21:32N 01°17' E 103°45'0 0.0
2017-Feb-17 20:32N 01°17' E 103°45'0 0.0
2017-Feb-17 19:32N 01°17' E 103°45'0 0.0
2017-Feb-17 18:32N 01°17' E 103°45'0 0.0
2017-Feb-17 17:29N 01°17' E 103°45'0 0.0
2017-Feb-17 16:33N 01°17' E 103°45'3 2.6
2017-Feb-17 15:33N 01°15' E 103°47'7 7.3
2017-Feb-17 14:33N 01°14' E 103°54'9 9.3
2017-Feb-17 13:33N 01°16' E 104°03'  
2017-Feb-13 17:31N 22°24' E 120°05'1515.7
2017-Feb-13 16:34N 22°33' E 120°18'1 0.6
2017-Feb-13 15:31N 22°34' E 120°19'0 0.0
2017-Feb-13 14:31N 22°34' E 120°19'0 0.0
2017-Feb-13 13:19N 22°34' E 120°19'0 0.0
2017-Feb-13 11:31N 22°34' E 120°19'0 0.0
2017-Feb-13 10:31N 22°34' E 120°19'0 0.0
2017-Feb-13 09:31N 22°34' E 120°19'0 0.0
2017-Feb-13 08:31N 22°34' E 120°19'0 0.0
2017-Feb-13 07:25N 22°34' E 120°19'0 0.0
2017-Feb-13 06:31N 22°34' E 120°19'0 0.0
2017-Feb-13 05:31N 22°34' E 120°19'0 0.0
2017-Feb-13 04:31N 22°34' E 120°19'0 0.0
2017-Feb-13 03:31N 22°34' E 120°19'0 0.0
2017-Feb-13 02:31N 22°34' E 120°19'  
Track history (hours):
 
Tides and Currents Weather Stations Pressure Air Temp Water Temp Dewpoint Dewpoint Depression Visibility Wind Speed Wind Dir Waves Ship Positions

CSCL Fuzhou

Last reported at 2017-Feb-23 02:06 UTC. Time now 2017-Feb-24 21:35 UTC.
Position N 01°14' E 104°01'.

Length 207.4 m; beam 29.8 m; draft 11.4 m.

Type: Ship (hazmat cat A). MMSI: 636016483.

Date/timePositionNaut miles runAvg speedWind from/ knotsBaromVisibWave heightAir tempDewpointWater temp
2017-Feb-23 02:06N 01°14' E 104°01'1017.9
2017-Feb-23 01:33N 01°11' E 103°52'1716.9
2017-Feb-23 00:34N 01°03' E 103°37'1212.2
2017-Feb-22 23:33N 01°14' E 103°31'9 8.6
2017-Feb-22 22:33N 01°22' E 103°32'0 0.1
2017-Feb-22 21:19N 01°22' E 103°33'0 0.0
2017-Feb-22 20:31N 01°22' E 103°33'0 0.0
2017-Feb-22 19:31N 01°22' E 103°33'0 0.0
2017-Feb-22 18:25N 01°22' E 103°33'0 0.0
2017-Feb-22 16:28N 01°22' E 103°33'0 0.0
2017-Feb-22 15:31N 01°22' E 103°33'0 0.0
2017-Feb-22 13:31N 01°22' E 103°33'0 0.0
2017-Feb-22 12:28N 01°22' E 103°33'0 0.0
2017-Feb-22 11:28N 01°22' E 103°33'0 0.0
2017-Feb-22 10:31N 01°22' E 103°33'0 0.0
2017-Feb-22 09:19N 01°22' E 103°33'0 0.0
2017-Feb-22 08:31N 01°22' E 103°33'1 1.0
2017-Feb-22 07:33N 01°21' E 103°33'8 8.5
2017-Feb-22 06:33N 01°13' E 103°31'8 8.2
2017-Feb-22 05:33N 01°14' E 103°23'6115.0
2017-Feb-22 01:30N 01°46' E 102°32'  
2017-Feb-18 14:27N 01°55' E 102°19'1411.6
2017-Feb-18 13:13N 01°49' E 102°32'6513.9
2017-Feb-18 08:34N 01°14' E 103°27'1212.4
2017-Feb-18 07:34N 01°12' E 103°39'8 7.7
2017-Feb-18 06:32N 01°17' E 103°45'0 0.0
2017-Feb-18 05:32N 01°17' E 103°45'0 0.0
2017-Feb-18 04:32N 01°17' E 103°45'0 0.0
2017-Feb-18 03:32N 01°17' E 103°45'0 0.0
2017-Feb-18 02:32N 01°17' E 103°45'0 0.0
2017-Feb-18 01:32N 01°17' E 103°45'0 0.0
2017-Feb-18 00:32N 01°17' E 103°45'0 0.0
2017-Feb-17 23:32N 01°17' E 103°45'0 0.0
2017-Feb-17 22:29N 01°17' E 103°45'0 0.0
2017-Feb-17 21:32N 01°17' E 103°45'0 0.0
2017-Feb-17 20:32N 01°17' E 103°45'0 0.0
2017-Feb-17 19:32N 01°17' E 103°45'0 0.0
2017-Feb-17 18:32N 01°17' E 103°45'0 0.0
2017-Feb-17 17:29N 01°17' E 103°45'0 0.0
2017-Feb-17 16:33N 01°17' E 103°45'3 2.6
2017-Feb-17 15:33N 01°15' E 103°47'7 7.3
2017-Feb-17 14:33N 01°14' E 103°54'9 9.3
2017-Feb-17 13:33N 01°16' E 104°03'  
2017-Feb-13 17:31N 22°24' E 120°05'1515.7
2017-Feb-13 16:34N 22°33' E 120°18'1 0.6
2017-Feb-13 15:31N 22°34' E 120°19'0 0.0
2017-Feb-13 14:31N 22°34' E 120°19'0 0.0
2017-Feb-13 13:19N 22°34' E 120°19'0 0.0
2017-Feb-13 11:31N 22°34' E 120°19'0 0.0
2017-Feb-13 10:31N 22°34' E 120°19'0 0.0
2017-Feb-13 09:31N 22°34' E 120°19'0 0.0
2017-Feb-13 08:31N 22°34' E 120°19'0 0.0
2017-Feb-13 07:25N 22°34' E 120°19'0 0.0
2017-Feb-13 06:31N 22°34' E 120°19'0 0.0
2017-Feb-13 05:31N 22°34' E 120°19'0 0.0
2017-Feb-13 04:31N 22°34' E 120°19'0 0.0
2017-Feb-13 03:31N 22°34' E 120°19'0 0.0
2017-Feb-13 02:31N 22°34' E 120°19'  

Dump ship's entire track history